Time;durP1;ratioP1;P1;durP2;ratioP2;P2;SDS_P1;SDS_P2;PMS_P1;PMS_P2;Temp;Humidity;BMP_temperature;BMP_pressure;BME280_temperature;BME280_humidity;BME280_pressure;Samples;Min_cycle;Max_cycle;Signal;HPM_P1;HPM_P2
2022/05/05 00:02:08;;;;;;;18.47;14.80;;;12.60;99.90;;;-141.84;100.00;16563.44;5112871;28;20864;-60
2022/05/05 00:04:37;;;;;;;18.80;15.60;;;12.50;99.90;;;-141.84;100.00;16561.41;5112479;28;20330;-59
2022/05/05 00:07:05;;;;;;;18.40;16.40;;;12.50;99.90;;;-141.84;100.00;16555.31;5112323;28;20727;-59
2022/05/05 00:09:33;;;;;;;17.53;15.70;;;12.50;99.90;;;-141.84;100.00;16563.44;5112453;28;20226;-60
2022/05/05 00:14:47;;;;;;;22.27;16.70;;;12.50;99.90;;;-141.84;100.00;16541.09;5112415;28;20250;-58
2022/05/05 00:17:15;;;;;;;18.80;16.13;;;12.50;99.90;;;-141.84;100.00;16551.25;5113029;28;20278;-58
2022/05/05 00:19:45;;;;;;;19.93;16.13;;;12.50;99.90;;;-141.84;100.00;16563.44;5112482;28;20685;-58
2022/05/05 00:22:13;;;;;;;19.60;16.43;;;12.50;99.90;;;-141.84;100.00;16545.16;5092075;28;20232;-59
2022/05/05 00:24:41;;;;;;;19.63;15.70;;;12.50;99.90;;;-141.84;100.00;16569.50;5091835;28;20426;-60
2022/05/05 00:27:09;;;;;;;18.50;15.50;;;12.50;99.90;;;-141.84;100.00;16553.28;5091933;28;20320;-58
2022/05/05 00:29:37;;;;;;;23.27;16.77;;;12.50;99.90;;;-141.84;100.00;16557.34;5091512;28;20230;-59
2022/05/05 00:32:06;;;;;;;18.10;15.60;;;12.50;99.90;;;-141.84;100.00;16541.09;5103704;28;20294;-59
2022/05/05 00:34:34;;;;;;;20.77;16.30;;;12.50;99.90;;;-141.84;100.00;16530.94;5111855;28;20323;-58
2022/05/05 00:37:04;;;;;;;22.00;18.00;;;12.50;99.90;;;-141.84;100.00;16530.94;5111712;28;20324;-58
2022/05/05 00:39:32;;;;;;;18.00;16.10;;;12.50;99.90;;;-141.84;100.00;16490.31;5111615;28;20227;-58
2022/05/05 00:42:00;;;;;;;17.87;15.67;;;12.50;99.90;;;-141.84;100.00;16512.66;5112008;28;20229;-58
2022/05/05 00:44:28;;;;;;;18.07;16.23;;;12.50;99.90;;;-141.84;100.00;16502.50;5111871;28;20289;-59
2022/05/05 00:46:57;;;;;;;21.27;17.03;;;12.40;99.90;;;-141.84;100.00;16510.63;5112012;28;20191;-58
2022/05/05 00:49:26;;;;;;;21.00;17.23;;;12.40;99.90;;;-141.84;100.00;16486.25;5111620;28;20298;-58
2022/05/05 00:51:54;;;;;;;19.30;16.80;;;12.40;99.90;;;-141.84;100.00;16484.22;5111370;28;20313;-57
2022/05/05 00:54:24;;;;;;;22.17;17.43;;;12.40;99.90;;;-141.84;100.00;16474.06;5111398;28;20595;-59
2022/05/05 00:56:53;;;;;;;19.83;17.73;;;12.40;99.90;;;-141.84;100.00;16488.28;5111437;28;20221;-59
2022/05/05 00:59:21;;;;;;;19.27;17.10;;;12.40;99.90;;;-141.84;100.00;16476.09;5111569;28;20230;-60
2022/05/05 01:01:49;;;;;;;21.57;17.93;;;12.40;99.90;;;-141.84;100.00;16463.91;5112448;28;20245;-60
2022/05/05 01:04:19;;;;;;;20.13;17.77;;;12.40;99.90;;;-141.84;100.00;16484.22;5111214;28;20223;-59
2022/05/05 01:06:47;;;;;;;19.23;17.23;;;12.40;99.90;;;-141.84;100.00;16461.91;5111244;28;20595;-58
2022/05/05 01:09:15;;;;;;;20.10;17.43;;;12.40;99.90;;;-141.84;100.00;16451.75;5111290;28;20215;-59
2022/05/05 01:11:45;;;;;;;19.03;17.00;;;12.40;99.90;;;-141.84;100.00;16474.06;5111666;28;20218;-58
2022/05/05 01:14:18;;;;;;;21.20;17.50;;;12.40;99.90;;;-141.84;100.00;16461.91;5111698;28;20183;-58
2022/05/05 01:16:47;;;;;;;19.47;16.97;;;12.30;99.90;;;-141.84;100.00;16455.81;5112100;28;20210;-57
2022/05/05 01:19:15;;;;;;;19.77;17.47;;;12.30;99.90;;;-141.84;100.00;16459.88;5111189;28;20231;-57
2022/05/05 01:21:53;;;;;;;19.97;17.87;;;12.30;99.90;;;-141.84;100.00;16431.44;5111480;28;20322;-59
2022/05/05 01:28:10;;;;;;;20.87;17.30;;;12.30;99.90;;;-141.84;100.00;16441.59;5111020;28;20223;-59
2022/05/05 01:29:56;;;;;;;23.77;18.93;;;12.30;99.90;;;-141.84;100.00;16445.66;5069861;28;20219;-57
2022/05/05 01:32:32;;;;;;;22.40;18.40;;;12.40;99.90;;;-141.84;100.00;16439.56;5111061;28;20199;-56
2022/05/05 01:35:01;;;;;;;20.33;17.90;;;12.30;99.90;;;-141.84;100.00;16449.72;5111751;28;20279;-59
2022/05/05 01:37:31;;;;;;;21.27;18.93;;;12.30;99.90;;;-141.84;100.00;16431.44;5110868;28;20273;-59
2022/05/05 01:39:59;;;;;;;22.23;19.73;;;12.30;99.90;;;-141.84;100.00;16437.53;5111083;28;20322;-60
2022/05/05 01:42:27;;;;;;;20.50;18.37;;;12.40;99.90;;;-141.84;100.00;16423.31;5110943;28;20265;-58
2022/05/05 01:44:54;;;;;;;20.57;17.33;;;12.30;99.90;;;-141.84;100.00;16405.03;5111330;28;20219;-58
2022/05/05 01:47:22;;;;;;;21.70;19.13;;;12.30;99.90;;;-141.84;100.00;16423.31;5110203;28;20205;-58
2022/05/05 01:49:50;;;;;;;21.13;18.83;;;12.30;99.90;;;-141.84;100.00;16409.09;5109439;28;20228;-57
2022/05/05 01:52:19;;;;;;;20.60;18.20;;;12.20;99.90;;;-141.84;100.00;16445.66;5111243;28;20767;-59
2022/05/05 01:54:48;;;;;;;21.63;19.37;;;12.30;99.90;;;-141.84;100.00;16403.00;5110831;28;20550;-60
2022/05/05 01:57:16;;;;;;;20.77;18.27;;;12.30;99.90;;;-141.84;100.00;16411.13;5110505;28;20237;-57
2022/05/05 01:59:44;;;;;;;22.30;19.23;;;12.30;99.90;;;-141.84;100.00;16419.25;5114935;28;20609;-58
2022/05/05 02:02:12;;;;;;;21.80;19.23;;;12.20;99.90;;;-141.84;100.00;16417.22;5116095;28;20203;-57
2022/05/05 02:04:40;;;;;;;21.63;19.37;;;12.20;99.90;;;-141.84;100.00;16415.19;5114968;28;20238;-59
2022/05/05 02:07:08;;;;;;;21.10;18.73;;;12.20;99.90;;;-141.84;100.00;16413.16;5114961;28;20223;-59
2022/05/05 02:09:36;;;;;;;22.37;19.97;;;12.30;99.90;;;-141.84;100.00;16388.78;5114970;28;20231;-59
2022/05/05 02:12:07;;;;;;;22.73;20.30;;;12.30;99.90;;;-141.84;100.00;16403.00;5115414;28;20215;-59
2022/05/05 02:14:35;;;;;;;25.00;20.33;;;12.30;99.90;;;-141.84;100.00;16403.00;5114600;28;20649;-59
2022/05/05 02:17:05;;;;;;;22.50;20.10;;;12.30;99.90;;;-141.84;100.00;16370.50;5115364;28;20214;-58
2022/05/05 02:19:33;;;;;;;23.80;20.20;;;12.20;99.90;;;-141.84;100.00;16413.16;5114365;28;20302;-58
2022/05/05 02:22:02;;;;;;;22.00;19.70;;;12.30;99.90;;;-141.84;100.00;16390.81;5114781;28;20306;-58
2022/05/05 02:24:30;;;;;;;23.07;19.57;;;12.30;99.90;;;-141.84;100.00;16374.56;5114174;28;20287;-56
2022/05/05 02:26:57;;;;;;;22.67;20.23;;;12.30;99.90;;;-141.84;100.00;16396.91;5114482;28;20219;-58
2022/05/05 02:29:27;;;;;;;22.80;19.90;;;12.20;99.90;;;-141.84;100.00;16409.09;5114120;28;20196;-59
2022/05/05 02:31:55;;;;;;;23.00;19.77;;;12.30;99.90;;;-141.84;100.00;16364.44;5115932;28;20352;-59
2022/05/05 02:34:29;;;;;;;23.50;19.70;;;12.20;99.90;;;-141.84;100.00;16380.66;5114339;28;20223;-59
2022/05/05 02:39:42;;;;;;;23.03;19.80;;;12.20;99.90;;;-141.84;100.00;16366.47;5113983;28;20310;-58
2022/05/05 02:42:10;;;;;;;22.57;20.17;;;12.20;99.90;;;-141.84;100.00;16390.81;5114173;28;20310;-57
2022/05/05 02:44:40;;;;;;;27.67;21.97;;;12.20;99.90;;;-141.84;100.00;16394.88;5114201;28;20302;-59
2022/05/05 02:47:08;;;;;;;23.00;19.23;;;12.20;99.90;;;-141.84;100.00;16352.25;5114795;28;20625;-58
2022/05/05 02:49:36;;;;;;;22.07;19.70;;;12.20;99.90;;;-141.84;100.00;16366.47;5112835;28;20253;-58
2022/05/05 02:52:06;;;;;;;21.17;18.63;;;12.20;99.90;;;-141.84;100.00;16382.69;5113693;28;20219;-58
2022/05/05 02:54:51;;;;;;;21.67;19.37;;;12.10;99.90;;;-141.84;100.00;16305.53;5113871;28;20223;-59
2022/05/05 02:57:23;;;;;;;24.23;21.00;;;12.10;99.90;;;-141.84;100.00;16358.34;5113748;28;20496;-59
2022/05/05 02:59:54;;;;;;;23.87;19.97;;;12.10;99.90;;;-141.84;100.00;16366.47;5113786;28;20305;-58
2022/05/05 03:02:23;;;;;;;25.17;20.37;;;12.10;99.90;;;-141.84;100.00;16362.41;5114217;28;20611;-60
2022/05/05 03:04:52;;;;;;;23.07;20.23;;;12.10;99.90;;;-141.84;100.00;16317.72;5114605;28;20206;-58
2022/05/05 03:07:22;;;;;;;24.93;20.63;;;12.10;99.90;;;-141.84;100.00;16317.72;5113766;28;20306;-59
2022/05/05 03:09:50;;;;;;;27.50;21.50;;;12.10;99.90;;;-141.84;100.00;16323.81;5113527;28;20310;-59
2022/05/05 03:12:18;;;;;;;25.77;21.03;;;12.10;99.90;;;-141.84;100.00;16336.00;5113785;28;20264;-58
2022/05/05 03:14:53;;;;;;;28.07;21.47;;;12.00;99.90;;;-141.84;100.00;16299.44;5113529;28;20302;-59
2022/05/05 03:17:22;;;;;;;25.87;20.83;;;12.00;99.90;;;-141.84;100.00;16269.00;5113586;28;20203;-60
2022/05/05 03:19:50;;;;;;;24.00;21.43;;;12.00;99.90;;;-141.84;100.00;16287.25;5114015;28;20195;-57
2022/05/05 03:22:18;;;;;;;24.60;20.87;;;12.00;99.90;;;-141.84;100.00;16275.09;5113647;28;20288;-58
2022/05/05 03:24:46;;;;;;;23.90;21.23;;;12.00;99.90;;;-141.84;100.00;16287.25;5113044;28;20223;-59
2022/05/05 03:27:14;;;;;;;24.37;21.47;;;11.90;99.90;;;-141.84;100.00;16262.91;5113219;28;20223;-58
2022/05/05 03:29:42;;;;;;;23.57;21.03;;;11.90;99.90;;;-141.84;100.00;16281.16;5113009;28;20231;-56
2022/05/05 03:32:11;;;;;;;24.03;21.27;;;11.90;99.90;;;-141.84;100.00;16271.03;5113868;28;20286;-58
2022/05/05 03:34:39;;;;;;;25.60;22.40;;;11.90;99.90;;;-141.84;100.00;16264.94;5107906;28;20227;-58
2022/05/05 03:37:07;;;;;;;28.60;21.70;;;11.90;99.90;;;-141.84;100.00;16240.56;5112852;28;20713;-59
2022/05/05 03:39:35;;;;;;;26.97;21.90;;;12.00;99.90;;;-141.84;100.00;16254.78;5112411;28;20318;-57
2022/05/05 03:42:04;;;;;;;24.07;21.57;;;12.00;99.90;;;-141.84;100.00;16230.41;5112958;28;20315;-59
2022/05/05 03:44:32;;;;;;;25.67;21.93;;;12.00;99.90;;;-141.84;100.00;16262.91;5113224;28;20199;-59
2022/05/05 03:47:00;;;;;;;24.27;21.67;;;12.00;99.90;;;-141.84;100.00;16238.53;5113159;28;20663;-59
2022/05/05 03:49:29;;;;;;;23.33;20.93;;;11.90;99.90;;;-141.84;100.00;16226.34;5112510;28;20261;-56
2022/05/05 03:51:57;;;;;;;22.17;19.93;;;12.00;99.90;;;-141.84;100.00;16238.53;5110885;28;20223;-58
2022/05/05 03:54:26;;;;;;;25.43;21.23;;;12.00;99.90;;;-141.84;100.00;16254.78;5112776;28;20223;-57
2022/05/05 03:56:54;;;;;;;24.07;20.50;;;12.00;99.90;;;-141.84;100.00;16226.34;5112686;28;20227;-57
2022/05/05 03:59:22;;;;;;;24.00;21.20;;;12.00;99.90;;;-141.84;100.00;16246.66;5112243;28;20682;-59
2022/05/05 04:01:50;;;;;;;25.40;21.13;;;12.00;99.90;;;-141.84;100.00;16214.16;5113184;28;20591;-58
2022/05/05 04:04:19;;;;;;;23.57;20.67;;;12.00;99.90;;;-141.84;100.00;16222.28;5112624;28;20223;-59
2022/05/05 04:06:49;;;;;;;22.97;20.47;;;12.10;99.90;;;-141.84;100.00;16220.25;5112446;28;20227;-59
2022/05/05 04:09:17;;;;;;;22.80;20.33;;;12.10;99.90;;;-141.84;100.00;16240.56;5112050;28;20982;-57
2022/05/05 04:11:45;;;;;;;24.30;20.30;;;12.10;99.90;;;-141.84;100.00;16254.78;5112211;28;20813;-60
2022/05/05 04:14:13;;;;;;;21.47;19.17;;;12.20;99.90;;;-141.84;100.00;16234.47;5113420;28;20294;-58
2022/05/05 04:16:43;;;;;;;24.00;19.50;;;12.20;99.90;;;-141.84;100.00;16222.28;5112275;28;20227;-59
2022/05/05 04:19:11;;;;;;;22.90;18.87;;;12.20;99.90;;;-141.84;100.00;16248.69;5112339;28;20223;-59
2022/05/05 04:21:39;;;;;;;22.20;18.53;;;12.20;99.90;;;-141.84;100.00;16226.34;5111298;28;20231;-59
2022/05/05 04:24:08;;;;;;;21.70;18.33;;;12.20;99.90;;;-141.84;100.00;16254.78;5112438;28;20226;-59
2022/05/05 04:26:37;;;;;;;20.03;17.93;;;12.20;99.90;;;-141.84;100.00;16222.28;5111643;28;20326;-60
2022/05/05 04:29:05;;;;;;;23.00;19.57;;;12.20;99.90;;;-141.84;100.00;16246.66;5112578;28;20200;-59
2022/05/05 04:31:34;;;;;;;21.93;18.03;;;12.30;99.90;;;-141.84;100.00;16230.41;5111475;28;20298;-58
2022/05/05 04:34:04;;;;;;;22.40;18.33;;;12.30;99.90;;;-141.84;100.00;16216.19;5111980;28;20227;-60
2022/05/05 04:36:35;;;;;;;20.47;18.37;;;12.30;99.90;;;-141.84;100.00;16232.44;5111163;28;20322;-57
2022/05/05 04:39:03;;;;;;;19.53;17.57;;;12.30;99.90;;;-141.84;100.00;16222.28;5111765;28;20306;-59
2022/05/05 04:41:33;;;;;;;19.97;17.50;;;12.30;99.90;;;-141.84;100.00;16266.97;5111133;28;20592;-58
2022/05/05 04:44:01;;;;;;;20.37;17.57;;;12.30;99.90;;;-141.84;100.00;16212.13;5112997;28;20229;-56
2022/05/05 04:46:29;;;;;;;19.27;16.77;;;12.30;99.90;;;-141.84;100.00;16281.16;5111483;28;20350;-58
2022/05/05 04:48:58;;;;;;;18.73;16.33;;;12.30;99.90;;;-141.84;100.00;16295.38;5111339;28;20219;-60
2022/05/05 04:51:26;;;;;;;19.17;16.87;;;12.30;99.90;;;-141.84;100.00;16301.47;5108975;28;20653;-59
2022/05/05 04:53:54;;;;;;;18.77;16.77;;;12.40;99.90;;;-141.84;100.00;16238.53;5112002;28;20233;-59
2022/05/05 04:56:21;;;;;;;19.00;16.67;;;12.40;99.90;;;-141.84;100.00;16250.72;5111122;28;20203;-59
2022/05/05 04:58:51;;;;;;;25.17;17.40;;;12.40;99.90;;;-141.84;100.00;16275.09;5111896;28;20205;-59
2022/05/05 05:01:19;;;;;;;20.63;16.53;;;12.30;99.90;;;-141.84;100.00;16246.66;5111028;28;20317;-57
2022/05/05 05:03:47;;;;;;;18.87;16.37;;;12.40;99.90;;;-141.84;100.00;16248.69;5111464;28;20222;-59
2022/05/05 05:06:15;;;;;;;17.13;15.33;;;12.30;99.90;;;-141.84;100.00;16275.09;5111306;28;20223;-59
2022/05/05 05:08:45;;;;;;;18.47;16.47;;;12.40;99.90;;;-141.84;100.00;16254.78;5111418;28;20235;-58
2022/05/05 05:11:13;;;;;;;18.90;16.13;;;12.40;99.90;;;-141.84;100.00;16266.97;5111368;28;20274;-58
2022/05/05 05:13:41;;;;;;;18.53;16.40;;;12.50;99.90;;;-141.84;100.00;16240.56;5111643;28;20231;-59
2022/05/05 05:16:10;;;;;;;17.80;15.27;;;12.50;99.90;;;-141.84;100.00;16238.53;5110680;28;20237;-59
2022/05/05 05:18:58;;;;;;;22.13;16.50;;;12.50;99.90;;;-141.84;100.00;16297.41;5110992;28;20705;-57
2022/05/05 05:21:26;;;;;;;18.50;16.33;;;12.60;99.90;;;-141.84;100.00;16309.59;5110890;28;20219;-59
2022/05/05 05:23:54;;;;;;;19.10;16.27;;;12.80;99.90;;;-141.84;99.14;16409.09;5111344;28;20227;-59
2022/05/05 05:26:22;;;;;;;18.40;15.53;;;13.10;99.90;;;-141.84;98.00;16449.72;5110623;28;20205;-58
2022/05/05 05:28:50;;;;;;;17.07;14.10;;;13.30;99.90;;;-141.84;96.17;16514.69;5111538;28;20319;-57
2022/05/05 05:31:21;;;;;;;15.37;13.93;;;13.40;99.90;;;-141.84;94.29;16606.06;5110080;28;20294;-57
2022/05/05 05:33:49;;;;;;;16.50;13.53;;;13.70;99.90;;;-141.84;93.33;16632.47;5109948;28;20301;-59
2022/05/05 05:36:18;;;;;;;14.87;13.37;;;13.80;99.90;;;-141.84;93.21;16608.09;5110688;28;20310;-57
2022/05/05 05:38:46;;;;;;;15.57;13.97;;;13.90;99.90;;;-141.84;90.28;16727.91;5110698;28;20234;-57
2022/05/05 05:41:14;;;;;;;17.40;13.70;;;14.00;99.90;;;-141.84;90.92;16677.16;5111139;28;20286;-58
2022/05/05 05:43:42;;;;;;;14.80;13.30;;;14.20;99.90;;;-141.84;89.61;16729.94;5111718;28;20709;-58
2022/05/05 05:46:10;;;;;;;14.87;12.87;;;14.20;99.90;;;-141.84;86.48;16815.22;5110647;28;20223;-59
2022/05/05 05:48:40;;;;;;;14.88;12.57;;;14.50;99.90;;;-141.84;84.67;16866.00;5110558;28;20655;-59
2022/05/05 05:51:08;;;;;;;14.07;12.10;;;14.70;99.90;;;-141.84;83.75;16894.44;5097297;28;20648;-59
2022/05/05 05:53:36;;;;;;;13.60;12.20;;;14.80;99.90;;;-141.84;85.02;16928.97;5090577;28;20200;-58
2022/05/05 05:56:04;;;;;;;13.43;12.13;;;14.70;99.90;;;-141.84;85.50;16888.34;5091108;28;20299;-58
2022/05/05 05:58:36;;;;;;;13.40;11.93;;;14.70;99.90;;;-141.84;83.21;16908.66;5090387;28;20637;-59
2022/05/05 06:01:06;;;;;;;12.65;11.27;;;14.90;99.90;;;-141.84;84.42;16912.72;5089726;28;20223;-59
2022/05/05 06:06:21;;;;;;;12.93;11.13;;;14.80;99.90;;;-141.84;83.14;16955.38;5107203;28;20603;-59
2022/05/05 06:08:50;;;;;;;13.23;11.55;;;14.70;99.90;;;-141.84;83.01;16947.25;5110752;28;20235;-58
2022/05/05 06:11:21;;;;;;;12.55;11.23;;;14.80;99.90;;;-141.84;81.90;16993.94;5110050;28;20297;-59
2022/05/05 06:13:50;;;;;;;13.07;11.40;;;14.70;99.90;;;-141.84;82.37;16991.91;5110809;28;20188;-58
2022/05/05 06:16:19;;;;;;;13.45;12.00;;;14.70;99.90;;;-141.84;82.79;16969.56;5110193;28;20226;-58
2022/05/05 06:18:47;;;;;;;11.95;10.68;;;14.80;99.90;;;-141.84;83.90;16935.06;5110304;28;20227;-59
2022/05/05 06:21:15;;;;;;;13.82;11.50;;;14.60;99.90;;;-141.84;84.20;16906.63;5097753;28;20219;-59
2022/05/05 06:23:47;;;;;;;12.05;10.65;;;14.60;99.90;;;-141.84;84.88;16876.16;5090008;28;20230;-59
2022/05/05 06:26:15;;;;;;;12.97;11.13;;;14.50;99.90;;;-141.84;85.54;16857.88;5090893;28;20199;-59
2022/05/05 06:28:44;;;;;;;12.37;10.87;;;14.40;99.90;;;-141.84;86.51;16821.31;5104446;28;20697;-58
2022/05/05 06:31:12;;;;;;;12.30;10.95;;;14.40;99.90;;;-141.84;85.69;16888.34;5106753;28;20256;-58
2022/05/05 06:33:40;;;;;;;11.50;10.30;;;14.50;99.90;;;-141.84;84.70;16888.34;5089803;28;20246;-58
2022/05/05 06:36:08;;;;;;;11.50;10.35;;;14.70;99.90;;;-141.84;84.97;16933.03;5090456;28;20307;-59
2022/05/05 06:38:36;;;;;;;11.65;10.55;;;14.80;99.90;;;-141.84;81.91;16991.91;5089742;28;20335;-58
2022/05/05 06:41:08;;;;;;;14.95;9.95;;;14.90;99.90;;;-141.84;80.64;17067.06;5090079;28;20637;-59
2022/05/05 06:43:36;;;;;;;13.02;10.85;;;15.20;99.90;;;-141.84;81.06;17044.72;5090290;28;20315;-59
2022/05/05 06:46:04;;;;;;;11.57;9.77;;;15.30;99.90;;;-141.84;79.88;17083.31;5094098;28;20251;-59
2022/05/05 06:48:32;;;;;;;11.20;10.00;;;15.40;99.90;;;-141.84;79.73;17119.88;5093604;28;20260;-59
2022/05/05 06:51:00;;;;;;;10.55;9.25;;;15.60;99.90;;;-141.84;77.87;17215.31;5104165;28;20231;-59
2022/05/05 06:53:28;;;;;;;13.05;9.25;;;15.60;99.90;;;-141.84;78.62;17152.34;5113932;28;20243;-59
2022/05/05 06:55:58;;;;;;;10.00;9.00;;;15.80;99.90;;;-141.84;78.38;17192.97;5115127;28;20302;-60
2022/05/05 06:58:28;;;;;;;10.30;9.15;;;15.90;99.90;;;-141.84;76.42;17262.03;5113437;28;20219;-59
2022/05/05 07:03:41;;;;;;;10.73;8.88;;;16.00;99.90;;;-141.84;73.85;17357.50;5113689;28;20648;-55
2022/05/05 07:06:10;;;;;;;9.75;8.75;;;15.90;99.90;;;-141.84;74.66;17343.28;5114648;28;20746;-56
2022/05/05 07:11:24;;;;;;;9.73;8.82;;;16.00;99.90;;;-141.84;74.09;17377.81;5113586;28;20274;-55
2022/05/05 07:13:54;;;;;;;9.30;8.32;;;16.00;99.90;;;-141.84;72.79;17400.16;5114061;28;20230;-57
2022/05/05 07:16:21;;;;;;;12.30;9.35;;;16.00;99.90;;;-141.84;71.29;17465.13;5113069;28;20309;-55
2022/05/05 07:18:50;;;;;;;12.45;8.55;;;16.10;99.90;;;-141.84;70.98;17471.22;5092863;28;20273;-54
2022/05/05 07:21:20;;;;;;;11.52;9.48;;;16.10;99.90;;;-141.84;71.10;17448.91;5106076;28;20310;-56
2022/05/05 07:23:47;;;;;;;10.38;9.38;;;16.00;99.90;;;-141.84;70.47;17485.44;5112856;28;20257;-57
2022/05/05 07:26:15;;;;;;;11.88;9.57;;;16.20;99.90;;;-141.84;70.14;17517.94;5113962;28;20301;-56
2022/05/05 07:28:44;;;;;;;10.65;9.65;;;16.40;99.90;;;-141.84;70.99;17507.78;5113621;28;20294;-58
2022/05/05 07:31:13;;;;;;;10.82;9.55;;;16.30;99.90;;;-141.84;70.88;17511.84;5109292;28;20298;-56
2022/05/05 07:33:41;;;;;;;10.45;8.98;;;16.30;99.90;;;-141.84;70.11;17526.06;5092477;28;20224;-60
2022/05/05 07:36:09;;;;;;;11.60;9.25;;;16.50;99.90;;;-141.84;70.11;17546.38;5093056;28;20224;-56
2022/05/05 07:38:37;;;;;;;12.23;9.57;;;16.30;99.90;;;-141.84;69.30;17519.97;5092342;28;20604;-58
2022/05/05 07:41:05;;;;;;;11.10;9.15;;;16.40;99.90;;;-141.84;68.83;17552.47;5092981;28;20615;-55
2022/05/05 07:43:33;;;;;;;10.02;9.02;;;16.60;99.90;;;-141.84;70.01;17554.50;5092248;28;20314;-55
2022/05/05 07:46:01;;;;;;;12.20;9.30;;;16.50;99.90;;;-141.84;66.47;17625.59;5094704;28;20726;-58
2022/05/05 07:48:30;;;;;;;10.32;9.00;;;16.80;99.90;;;-141.84;65.66;17674.34;5112785;28;20229;-57
2022/05/05 07:50:58;;;;;;;10.02;9.02;;;17.10;99.90;;;-141.84;63.96;17779.97;5099841;28;20322;-58
2022/05/05 07:53:26;;;;;;;10.38;9.20;;;17.40;99.90;;;-141.84;64.48;17753.56;5092151;28;20227;-59
2022/05/05 07:55:54;;;;;;;11.82;9.60;;;17.50;99.90;;;-141.84;63.15;17788.09;5092417;28;20470;-59
2022/05/05 07:58:22;;;;;;;10.32;8.40;;;17.80;99.90;;;-141.84;63.92;17773.88;5092136;28;20243;-60
2022/05/05 08:00:50;;;;;;;12.07;9.98;;;17.70;99.90;;;-141.84;63.33;17824.66;5092146;28;20236;-61
2022/05/05 08:03:19;;;;;;;12.52;9.23;;;17.80;99.90;;;-141.84;64.29;17806.38;5091730;28;20243;-59
2022/05/05 08:05:48;;;;;;;11.23;9.70;;;17.70;99.90;;;-141.84;64.88;17735.28;5090883;28;20242;-58
2022/05/05 08:08:16;;;;;;;12.35;9.68;;;17.70;99.90;;;-141.84;63.31;17800.28;5091806;28;20311;-60
2022/05/05 08:10:44;;;;;;;12.55;9.77;;;17.80;99.90;;;-141.84;63.87;17767.78;5092333;28;20200;-56
2022/05/05 08:13:12;;;;;;;12.30;11.13;;;17.80;99.90;;;-141.84;65.19;17731.22;5090777;28;20691;-58
2022/05/05 08:15:40;;;;;;;13.00;11.65;;;17.50;99.90;;;-141.84;66.35;17741.38;5105415;28;20231;-54
2022/05/05 08:18:08;;;;;;;14.20;11.80;;;17.40;99.90;;;-141.84;65.86;17747.47;5111759;28;20261;-57
2022/05/05 08:20:36;;;;;;;12.77;11.45;;;17.40;99.90;;;-141.84;66.29;17717.00;5111432;28;20235;-56
2022/05/05 08:23:06;;;;;;;11.60;10.48;;;17.40;99.90;;;-141.84;66.27;17688.56;5112027;28;20552;-56
2022/05/05 08:28:29;;;;;;;13.10;11.35;;;17.40;99.90;;;-141.84;66.92;17702.78;5111104;28;20306;-57
2022/05/05 08:30:57;;;;;;;14.05;11.45;;;17.40;99.90;;;-141.84;64.84;17737.31;5109802;28;20600;-57
2022/05/05 08:33:27;;;;;;;12.48;11.18;;;17.30;99.90;;;-141.84;66.33;17674.34;5091133;28;20243;-58
2022/05/05 08:35:55;;;;;;;13.35;11.45;;;17.00;99.90;;;-141.84;68.37;17631.69;5080753;28;20693;-56
2022/05/05 08:38:25;;;;;;;15.40;12.50;;;16.80;99.90;;;-141.84;67.54;17647.94;5090159;28;20307;-58
2022/05/05 08:40:53;;;;;;;12.68;11.40;;;16.90;99.90;;;-141.84;69.22;17587.00;5091101;28;20290;-58
2022/05/05 08:43:21;;;;;;;15.95;12.10;;;16.70;99.90;;;-141.84;69.61;17603.25;5091006;28;20248;-55
2022/05/05 08:45:53;;;;;;;14.15;12.27;;;16.70;99.90;;;-141.84;69.92;17584.97;5091119;28;20231;-58
2022/05/05 08:48:22;;;;;;;13.50;12.15;;;16.60;99.90;;;-141.84;68.88;17580.91;5111829;28;20279;-59
2022/05/05 08:50:58;;;;;;;13.45;11.98;;;16.60;99.90;;;-141.84;68.41;17607.31;5109231;28;20233;-61
2022/05/05 08:53:35;;;;;;;14.77;11.27;;;16.50;99.90;;;-141.84;69.36;17605.28;5111577;28;20646;-60
2022/05/05 08:56:05;;;;;;;12.35;11.10;;;16.50;99.90;;;-141.84;69.04;17605.28;5112189;28;20234;-58
2022/05/05 08:58:33;;;;;;;16.95;12.75;;;16.80;99.90;;;-141.84;67.89;17643.88;5111497;28;20745;-59
2022/05/05 09:01:01;;;;;;;13.57;11.80;;;16.90;99.90;;;-141.84;64.77;17765.75;5111177;28;20254;-57
2022/05/05 09:03:29;;;;;;;13.57;11.98;;;17.10;99.90;;;-141.84;65.52;17717.00;5111353;28;20223;-59
2022/05/05 09:05:57;;;;;;;11.60;10.50;;;17.10;99.90;;;-141.84;63.37;17779.97;5111740;28;20242;-58
2022/05/05 09:08:33;;;;;;;12.27;10.98;;;17.30;99.90;;;-141.84;63.05;17775.91;5111035;28;20689;-56
2022/05/05 09:11:04;;;;;;;11.52;10.45;;;17.30;99.90;;;-141.84;63.20;17769.81;5111920;28;20489;-57
2022/05/05 09:13:35;;;;;;;14.65;11.55;;;17.10;99.90;;;-141.84;62.88;17784.03;5110992;28;20773;-57
2022/05/05 09:16:05;;;;;;;12.55;11.27;;;17.30;99.90;;;-141.84;63.96;17753.56;5110983;28;20287;-59
2022/05/05 09:18:35;;;;;;;14.75;11.10;;;17.30;99.90;;;-141.84;61.63;17794.19;5111255;28;20230;-58
2022/05/05 09:21:05;;;;;;;12.15;10.93;;;17.50;99.90;;;-141.84;61.90;17808.41;5111162;28;20306;-59
2022/05/05 09:23:37;;;;;;;13.18;10.68;;;17.30;99.90;;;-141.84;63.14;17777.94;5111147;28;20203;-59
2022/05/05 09:26:09;;;;;;;12.00;10.75;;;17.00;99.90;;;-141.84;63.75;17737.31;5111883;28;20183;-59
2022/05/05 09:28:37;;;;;;;11.90;10.68;;;17.00;99.90;;;-141.84;63.97;17792.16;5110851;28;20235;-60
2022/05/05 09:31:08;;;;;;;11.73;10.55;;;17.00;99.90;;;-141.84;62.00;17798.25;5110638;28;20223;-58
2022/05/05 09:33:45;;;;;;;13.25;10.93;;;17.20;99.90;;;-141.84;60.88;17865.28;5111114;28;20249;-59
2022/05/05 09:36:15;;;;;;;11.30;10.02;;;17.40;99.90;;;-141.84;59.08;17873.41;5110976;28;20222;-59
2022/05/05 09:38:56;;;;;;;12.77;10.73;;;17.50;99.90;;;-141.84;60.00;17830.75;5110765;28;20237;-58
2022/05/05 09:41:26;;;;;;;11.05;9.80;;;17.40;99.90;;;-141.84;60.17;17863.25;5110547;28;20229;-59
2022/05/05 09:43:56;;;;;;;11.38;9.73;;;17.40;99.90;;;-141.84;59.63;17861.22;5111218;28;20254;-59
2022/05/05 09:46:31;;;;;;;12.98;10.77;;;17.50;99.90;;;-141.84;59.29;17853.09;5111121;28;20311;-58
2022/05/05 09:49:13;;;;;;;11.68;10.45;;;17.60;99.90;;;-141.84;60.14;17844.97;5110612;28;20258;-58
2022/05/05 09:51:44;;;;;;;12.70;10.40;;;17.40;99.90;;;-141.84;61.38;17830.75;5108098;28;20298;-58
2022/05/05 09:59:52;;;;;;;13.88;9.85;;;17.10;99.90;;;-141.84;59.39;17891.69;5110707;28;20774;-56
2022/05/05 10:05:17;;;;;;;13.43;9.40;;;17.50;99.90;;;-141.84;55.42;18009.53;5110755;28;20240;-56
2022/05/05 10:07:46;;;;;;;10.63;9.38;;;17.70;99.90;;;-141.84;55.65;18001.41;5111473;28;20214;-55
2022/05/05 10:10:17;;;;;;;10.85;9.88;;;17.90;99.90;;;-141.84;56.42;18015.63;5110147;28;20234;-57
2022/05/05 10:12:47;;;;;;;11.85;10.70;;;18.20;99.90;;;-141.84;55.57;18062.34;5110264;28;20223;-59
2022/05/05 10:15:15;;;;;;;13.38;10.50;;;18.30;99.90;;;-141.84;55.88;18042.03;5110280;28;20310;-56
2022/05/05 10:17:45;;;;;;;11.15;9.80;;;18.40;99.90;;;-141.84;56.88;18013.59;5110957;28;20755;-54
2022/05/05 10:20:14;;;;;;;12.48;10.65;;;18.20;99.90;;;-141.84;57.10;17991.25;5114569;28;20203;-56
2022/05/05 10:22:55;;;;;;;12.18;9.77;;;17.80;99.90;;;-141.84;56.43;18017.66;5115118;28;20219;-58
2022/05/05 10:25:27;;;;;;;10.82;8.75;;;17.80;99.90;;;-141.84;56.01;18005.47;5114484;28;20249;-59
2022/05/05 10:27:56;;;;;;;11.07;9.90;;;17.90;99.90;;;-141.84;54.69;18062.34;5114360;28;20325;-60